sensor_id;sensor_type;location;lat;lon;timestamp;P1;durP1;ratioP1;P2;durP2;ratioP2
38023;SDS011;23834;48.080;11.682;2022-12-20T00:01:33;7.13;;;6.43;;
38023;SDS011;23834;48.080;11.682;2022-12-20T00:04:00;8.33;;;7.07;;
38023;SDS011;23834;48.080;11.682;2022-12-20T00:06:26;7.10;;;6.40;;
38023;SDS011;23834;48.080;11.682;2022-12-20T00:08:56;8.37;;;6.63;;
38023;SDS011;23834;48.080;11.682;2022-12-20T00:11:21;8.10;;;6.20;;
38023;SDS011;23834;48.080;11.682;2022-12-20T00:13:46;6.90;;;6.10;;
38023;SDS011;23834;48.080;11.682;2022-12-20T00:16:12;6.40;;;5.80;;
38023;SDS011;23834;48.080;11.682;2022-12-20T00:18:39;6.80;;;6.10;;
38023;SDS011;23834;48.080;11.682;2022-12-20T00:21:04;6.80;;;6.10;;
38023;SDS011;23834;48.080;11.682;2022-12-20T00:23:30;6.90;;;6.23;;
38023;SDS011;23834;48.080;11.682;2022-12-20T00:25:59;8.27;;;6.10;;
38023;SDS011;23834;48.080;11.682;2022-12-20T00:28:24;6.67;;;5.70;;
38023;SDS011;23834;48.080;11.682;2022-12-20T00:30:53;6.87;;;6.17;;
38023;SDS011;23834;48.080;11.682;2022-12-20T00:33:18;6.30;;;5.70;;
38023;SDS011;23834;48.080;11.682;2022-12-20T00:35:43;6.27;;;5.67;;
38023;SDS011;23834;48.080;11.682;2022-12-20T00:38:08;5.80;;;5.30;;
38023;SDS011;23834;48.080;11.682;2022-12-20T00:40:33;7.20;;;5.90;;
38023;SDS011;23834;48.080;11.682;2022-12-20T00:42:59;5.77;;;5.20;;
38023;SDS011;23834;48.080;11.682;2022-12-20T00:45:24;6.20;;;5.70;;
38023;SDS011;23834;48.080;11.682;2022-12-20T00:47:49;6.23;;;5.53;;
38023;SDS011;23834;48.080;11.682;2022-12-20T00:50:14;5.77;;;5.37;;
38023;SDS011;23834;48.080;11.682;2022-12-20T00:52:39;5.30;;;4.90;;
38023;SDS011;23834;48.080;11.682;2022-12-20T00:55:04;5.50;;;5.00;;
38023;SDS011;23834;48.080;11.682;2022-12-20T00:57:30;5.90;;;5.17;;
38023;SDS011;23834;48.080;11.682;2022-12-20T00:59:55;5.77;;;5.17;;
38023;SDS011;23834;48.080;11.682;2022-12-20T01:02:20;5.10;;;4.70;;
38023;SDS011;23834;48.080;11.682;2022-12-20T01:04:47;5.10;;;4.70;;
38023;SDS011;23834;48.080;11.682;2022-12-20T01:07:12;5.47;;;4.90;;
38023;SDS011;23834;48.080;11.682;2022-12-20T01:09:37;5.53;;;5.03;;
38023;SDS011;23834;48.080;11.682;2022-12-20T01:12:02;5.70;;;5.20;;
38023;SDS011;23834;48.080;11.682;2022-12-20T01:14:28;5.37;;;4.87;;
38023;SDS011;23834;48.080;11.682;2022-12-20T01:16:53;5.27;;;4.87;;
38023;SDS011;23834;48.080;11.682;2022-12-20T01:19:18;5.20;;;4.70;;
38023;SDS011;23834;48.080;11.682;2022-12-20T01:21:43;5.07;;;4.67;;
38023;SDS011;23834;48.080;11.682;2022-12-20T01:24:09;4.70;;;4.30;;
38023;SDS011;23834;48.080;11.682;2022-12-20T01:26:35;5.83;;;4.87;;
38023;SDS011;23834;48.080;11.682;2022-12-20T01:29:00;4.90;;;4.33;;
38023;SDS011;23834;48.080;11.682;2022-12-20T01:31:26;5.17;;;4.67;;
38023;SDS011;23834;48.080;11.682;2022-12-20T01:33:51;4.47;;;4.07;;
38023;SDS011;23834;48.080;11.682;2022-12-20T01:36:23;5.70;;;5.10;;
38023;SDS011;23834;48.080;11.682;2022-12-20T01:38:49;4.13;;;3.80;;
38023;SDS011;23834;48.080;11.682;2022-12-20T01:41:18;4.80;;;4.40;;
38023;SDS011;23834;48.080;11.682;2022-12-20T01:46:37;4.87;;;4.37;;
38023;SDS011;23834;48.080;11.682;2022-12-20T01:51:44;4.90;;;4.50;;
38023;SDS011;23834;48.080;11.682;2022-12-20T01:54:11;4.67;;;4.10;;
38023;SDS011;23834;48.080;11.682;2022-12-20T01:56:38;4.53;;;4.13;;
38023;SDS011;23834;48.080;11.682;2022-12-20T01:59:04;3.90;;;3.60;;
38023;SDS011;23834;48.080;11.682;2022-12-20T02:01:30;4.60;;;4.20;;
38023;SDS011;23834;48.080;11.682;2022-12-20T02:03:55;3.90;;;3.50;;
38023;SDS011;23834;48.080;11.682;2022-12-20T02:06:22;3.97;;;3.67;;
38023;SDS011;23834;48.080;11.682;2022-12-20T02:08:48;4.27;;;3.53;;
38023;SDS011;23834;48.080;11.682;2022-12-20T02:16:05;4.03;;;3.73;;
38023;SDS011;23834;48.080;11.682;2022-12-20T02:18:35;4.63;;;4.23;;
38023;SDS011;23834;48.080;11.682;2022-12-20T02:21:24;3.10;;;2.90;;
38023;SDS011;23834;48.080;11.682;2022-12-20T02:31:26;4.07;;;3.67;;
38023;SDS011;23834;48.080;11.682;2022-12-20T02:33:51;3.83;;;3.50;;
38023;SDS011;23834;48.080;11.682;2022-12-20T02:36:19;3.80;;;3.50;;
38023;SDS011;23834;48.080;11.682;2022-12-20T02:38:44;4.20;;;3.77;;
38023;SDS011;23834;48.080;11.682;2022-12-20T02:41:11;3.80;;;3.50;;
38023;SDS011;23834;48.080;11.682;2022-12-20T02:43:38;3.77;;;3.40;;
38023;SDS011;23834;48.080;11.682;2022-12-20T02:46:24;3.53;;;3.23;;
38023;SDS011;23834;48.080;11.682;2022-12-20T02:48:49;3.30;;;3.10;;
38023;SDS011;23834;48.080;11.682;2022-12-20T02:51:16;3.63;;;3.13;;
38023;SDS011;23834;48.080;11.682;2022-12-20T02:53:42;3.27;;;2.97;;
38023;SDS011;23834;48.080;11.682;2022-12-20T02:56:15;3.70;;;3.40;;
38023;SDS011;23834;48.080;11.682;2022-12-20T03:01:29;3.50;;;3.20;;
38023;SDS011;23834;48.080;11.682;2022-12-20T03:03:56;3.40;;;3.10;;
38023;SDS011;23834;48.080;11.682;2022-12-20T03:06:21;3.03;;;2.83;;
38023;SDS011;23834;48.080;11.682;2022-12-20T03:08:47;3.47;;;3.17;;
38023;SDS011;23834;48.080;11.682;2022-12-20T03:11:12;4.03;;;3.73;;
38023;SDS011;23834;48.080;11.682;2022-12-20T03:13:38;3.53;;;3.23;;
38023;SDS011;23834;48.080;11.682;2022-12-20T03:16:03;3.37;;;3.07;;
38023;SDS011;23834;48.080;11.682;2022-12-20T03:18:28;4.93;;;3.50;;
38023;SDS011;23834;48.080;11.682;2022-12-20T03:20:54;3.20;;;2.90;;
38023;SDS011;23834;48.080;11.682;2022-12-20T03:23:19;2.87;;;2.67;;
38023;SDS011;23834;48.080;11.682;2022-12-20T03:25:45;4.07;;;3.10;;
38023;SDS011;23834;48.080;11.682;2022-12-20T03:28:11;3.20;;;2.90;;
38023;SDS011;23834;48.080;11.682;2022-12-20T03:30:36;3.20;;;2.90;;
38023;SDS011;23834;48.080;11.682;2022-12-20T03:33:01;2.80;;;2.50;;
38023;SDS011;23834;48.080;11.682;2022-12-20T03:35:26;3.27;;;3.00;;
38023;SDS011;23834;48.080;11.682;2022-12-20T03:37:51;2.93;;;2.63;;
38023;SDS011;23834;48.080;11.682;2022-12-20T03:40:17;3.30;;;3.00;;
38023;SDS011;23834;48.080;11.682;2022-12-20T03:42:42;3.73;;;2.97;;
38023;SDS011;23834;48.080;11.682;2022-12-20T03:45:07;4.47;;;3.03;;
38023;SDS011;23834;48.080;11.682;2022-12-20T03:47:33;3.23;;;3.03;;
38023;SDS011;23834;48.080;11.682;2022-12-20T03:49:58;2.87;;;2.60;;
38023;SDS011;23834;48.080;11.682;2022-12-20T03:52:23;4.43;;;3.27;;
38023;SDS011;23834;48.080;11.682;2022-12-20T03:54:48;2.90;;;2.70;;
38023;SDS011;23834;48.080;11.682;2022-12-20T03:57:13;3.20;;;2.90;;
38023;SDS011;23834;48.080;11.682;2022-12-20T03:59:39;3.00;;;2.70;;
38023;SDS011;23834;48.080;11.682;2022-12-20T04:02:04;2.47;;;2.27;;
38023;SDS011;23834;48.080;11.682;2022-12-20T04:04:29;3.00;;;2.80;;
38023;SDS011;23834;48.080;11.682;2022-12-20T04:06:55;2.93;;;2.73;;
38023;SDS011;23834;48.080;11.682;2022-12-20T04:09:20;2.50;;;2.30;;
38023;SDS011;23834;48.080;11.682;2022-12-20T04:11:45;2.30;;;2.10;;
38023;SDS011;23834;48.080;11.682;2022-12-20T04:14:10;3.30;;;2.43;;
38023;SDS011;23834;48.080;11.682;2022-12-20T04:16:36;3.00;;;2.47;;
38023;SDS011;23834;48.080;11.682;2022-12-20T04:19:01;2.70;;;2.50;;
38023;SDS011;23834;48.080;11.682;2022-12-20T04:21:27;2.80;;;2.57;;
38023;SDS011;23834;48.080;11.682;2022-12-20T04:23:53;2.50;;;2.30;;
38023;SDS011;23834;48.080;11.682;2022-12-20T04:26:18;2.50;;;2.30;;
38023;SDS011;23834;48.080;11.682;2022-12-20T04:28:43;2.73;;;2.20;;
38023;SDS011;23834;48.080;11.682;2022-12-20T04:31:08;3.10;;;2.60;;
38023;SDS011;23834;48.080;11.682;2022-12-20T04:33:34;2.47;;;2.27;;
38023;SDS011;23834;48.080;11.682;2022-12-20T04:35:59;2.30;;;2.10;;
38023;SDS011;23834;48.080;11.682;2022-12-20T04:38:24;2.53;;;2.33;;
38023;SDS011;23834;48.080;11.682;2022-12-20T04:40:50;2.17;;;1.97;;
38023;SDS011;23834;48.080;11.682;2022-12-20T04:43:16;2.57;;;2.37;;
38023;SDS011;23834;48.080;11.682;2022-12-20T04:45:41;2.20;;;2.10;;
38023;SDS011;23834;48.080;11.682;2022-12-20T04:48:08;2.43;;;2.23;;
38023;SDS011;23834;48.080;11.682;2022-12-20T04:50:33;2.30;;;2.10;;
38023;SDS011;23834;48.080;11.682;2022-12-20T04:52:58;2.90;;;2.70;;
38023;SDS011;23834;48.080;11.682;2022-12-20T04:55:42;2.20;;;2.00;;
38023;SDS011;23834;48.080;11.682;2022-12-20T04:58:07;2.20;;;2.00;;
38023;SDS011;23834;48.080;11.682;2022-12-20T05:00:33;2.90;;;2.70;;
38023;SDS011;23834;48.080;11.682;2022-12-20T05:02:58;2.23;;;2.03;;
38023;SDS011;23834;48.080;11.682;2022-12-20T05:05:24;2.50;;;2.30;;
38023;SDS011;23834;48.080;11.682;2022-12-20T05:07:49;2.10;;;2.00;;
38023;SDS011;23834;48.080;11.682;2022-12-20T05:10:15;2.70;;;2.47;;
38023;SDS011;23834;48.080;11.682;2022-12-20T05:12:40;2.17;;;2.00;;
38023;SDS011;23834;48.080;11.682;2022-12-20T05:15:05;2.17;;;2.00;;
38023;SDS011;23834;48.080;11.682;2022-12-20T05:17:31;2.10;;;1.90;;
38023;SDS011;23834;48.080;11.682;2022-12-20T05:19:56;2.40;;;2.20;;
38023;SDS011;23834;48.080;11.682;2022-12-20T05:22:22;2.10;;;1.90;;
38023;SDS011;23834;48.080;11.682;2022-12-20T05:25:05;2.53;;;2.33;;
38023;SDS011;23834;48.080;11.682;2022-12-20T05:27:49;2.23;;;2.03;;
38023;SDS011;23834;48.080;11.682;2022-12-20T05:30:14;2.40;;;2.10;;
38023;SDS011;23834;48.080;11.682;2022-12-20T05:32:40;2.10;;;2.00;;
38023;SDS011;23834;48.080;11.682;2022-12-20T05:35:05;2.40;;;2.20;;
38023;SDS011;23834;48.080;11.682;2022-12-20T05:37:31;2.33;;;2.13;;
38023;SDS011;23834;48.080;11.682;2022-12-20T05:39:56;2.00;;;1.90;;
38023;SDS011;23834;48.080;11.682;2022-12-20T05:42:21;2.27;;;2.17;;
38023;SDS011;23834;48.080;11.682;2022-12-20T05:44:46;2.30;;;2.10;;
38023;SDS011;23834;48.080;11.682;2022-12-20T05:47:12;2.20;;;2.10;;
38023;SDS011;23834;48.080;11.682;2022-12-20T05:49:37;3.20;;;2.60;;
38023;SDS011;23834;48.080;11.682;2022-12-20T05:52:02;2.33;;;2.23;;
38023;SDS011;23834;48.080;11.682;2022-12-20T05:54:27;2.80;;;2.37;;
38023;SDS011;23834;48.080;11.682;2022-12-20T05:56:53;2.40;;;2.20;;
38023;SDS011;23834;48.080;11.682;2022-12-20T05:59:18;2.37;;;2.20;;
38023;SDS011;23834;48.080;11.682;2022-12-20T06:01:43;4.53;;;3.20;;
38023;SDS011;23834;48.080;11.682;2022-12-20T06:04:08;2.60;;;2.40;;
38023;SDS011;23834;48.080;11.682;2022-12-20T06:06:34;3.13;;;2.83;;
38023;SDS011;23834;48.080;11.682;2022-12-20T06:08:59;2.87;;;2.57;;
38023;SDS011;23834;48.080;11.682;2022-12-20T06:11:25;3.33;;;3.03;;
38023;SDS011;23834;48.080;11.682;2022-12-20T06:13:50;2.87;;;2.57;;
38023;SDS011;23834;48.080;11.682;2022-12-20T06:16:15;3.33;;;3.03;;
38023;SDS011;23834;48.080;11.682;2022-12-20T06:18:40;3.50;;;3.13;;
38023;SDS011;23834;48.080;11.682;2022-12-20T06:21:05;3.27;;;2.80;;
38023;SDS011;23834;48.080;11.682;2022-12-20T06:23:31;2.70;;;2.30;;
38023;SDS011;23834;48.080;11.682;2022-12-20T06:25:56;2.80;;;2.53;;
38023;SDS011;23834;48.080;11.682;2022-12-20T06:28:22;2.83;;;2.57;;
38023;SDS011;23834;48.080;11.682;2022-12-20T06:30:53;3.23;;;2.30;;
38023;SDS011;23834;48.080;11.682;2022-12-20T06:33:18;2.60;;;2.40;;
38023;SDS011;23834;48.080;11.682;2022-12-20T06:35:44;3.33;;;2.20;;
38023;SDS011;23834;48.080;11.682;2022-12-20T06:38:10;3.07;;;2.67;;
38023;SDS011;23834;48.080;11.682;2022-12-20T06:40:36;2.60;;;2.40;;
38023;SDS011;23834;48.080;11.682;2022-12-20T06:43:01;2.30;;;2.10;;
38023;SDS011;23834;48.080;11.682;2022-12-20T06:45:26;2.40;;;2.30;;
38023;SDS011;23834;48.080;11.682;2022-12-20T06:47:51;2.33;;;2.13;;
38023;SDS011;23834;48.080;11.682;2022-12-20T06:50:17;3.03;;;2.70;;
38023;SDS011;23834;48.080;11.682;2022-12-20T06:52:42;2.33;;;2.13;;
38023;SDS011;23834;48.080;11.682;2022-12-20T06:55:07;2.13;;;1.97;;
38023;SDS011;23834;48.080;11.682;2022-12-20T06:57:32;2.83;;;2.63;;
38023;SDS011;23834;48.080;11.682;2022-12-20T06:59:57;2.67;;;2.47;;
38023;SDS011;23834;48.080;11.682;2022-12-20T07:02:23;1.90;;;1.70;;
38023;SDS011;23834;48.080;11.682;2022-12-20T07:04:48;2.73;;;2.20;;
38023;SDS011;23834;48.080;11.682;2022-12-20T07:07:13;2.60;;;2.23;;
38023;SDS011;23834;48.080;11.682;2022-12-20T07:09:39;2.40;;;2.13;;
38023;SDS011;23834;48.080;11.682;2022-12-20T07:12:05;2.30;;;2.10;;
38023;SDS011;23834;48.080;11.682;2022-12-20T07:14:30;2.33;;;2.23;;
38023;SDS011;23834;48.080;11.682;2022-12-20T07:16:56;3.30;;;2.30;;
38023;SDS011;23834;48.080;11.682;2022-12-20T07:19:21;2.20;;;2.10;;
38023;SDS011;23834;48.080;11.682;2022-12-20T07:21:46;2.47;;;2.27;;
38023;SDS011;23834;48.080;11.682;2022-12-20T07:24:11;2.60;;;2.40;;
38023;SDS011;23834;48.080;11.682;2022-12-20T07:26:37;2.73;;;2.50;;
38023;SDS011;23834;48.080;11.682;2022-12-20T07:29:02;2.90;;;2.60;;
38023;SDS011;23834;48.080;11.682;2022-12-20T07:31:27;3.47;;;2.80;;
38023;SDS011;23834;48.080;11.682;2022-12-20T07:33:52;3.07;;;2.73;;
38023;SDS011;23834;48.080;11.682;2022-12-20T07:36:18;2.30;;;2.10;;
38023;SDS011;23834;48.080;11.682;2022-12-20T07:38:43;2.50;;;2.30;;
38023;SDS011;23834;48.080;11.682;2022-12-20T07:41:09;4.93;;;2.70;;
38023;SDS011;23834;48.080;11.682;2022-12-20T07:43:35;2.93;;;2.53;;
38023;SDS011;23834;48.080;11.682;2022-12-20T07:46:00;3.30;;;2.20;;
38023;SDS011;23834;48.080;11.682;2022-12-20T07:48:26;4.00;;;2.70;;
38023;SDS011;23834;48.080;11.682;2022-12-20T07:50:53;4.90;;;2.30;;
38023;SDS011;23834;48.080;11.682;2022-12-20T07:53:20;2.70;;;2.40;;
38023;SDS011;23834;48.080;11.682;2022-12-20T07:55:46;2.93;;;2.60;;
38023;SDS011;23834;48.080;11.682;2022-12-20T07:58:11;2.40;;;2.30;;
38023;SDS011;23834;48.080;11.682;2022-12-20T08:00:38;2.50;;;2.30;;
38023;SDS011;23834;48.080;11.682;2022-12-20T08:05:28;2.75;;;2.55;;
38023;SDS011;23834;48.080;11.682;2022-12-20T08:07:53;2.63;;;2.43;;
38023;SDS011;23834;48.080;11.682;2022-12-20T08:10:20;2.77;;;2.53;;
38023;SDS011;23834;48.080;11.682;2022-12-20T08:12:45;2.53;;;2.30;;
38023;SDS011;23834;48.080;11.682;2022-12-20T08:15:12;3.70;;;2.33;;
38023;SDS011;23834;48.080;11.682;2022-12-20T08:17:37;2.77;;;2.53;;
38023;SDS011;23834;48.080;11.682;2022-12-20T08:20:02;3.03;;;2.70;;
38023;SDS011;23834;48.080;11.682;2022-12-20T08:22:29;3.30;;;2.70;;
38023;SDS011;23834;48.080;11.682;2022-12-20T08:24:54;3.10;;;2.80;;
38023;SDS011;23834;48.080;11.682;2022-12-20T08:27:20;4.07;;;2.80;;
38023;SDS011;23834;48.080;11.682;2022-12-20T08:29:45;3.00;;;2.80;;
38023;SDS011;23834;48.080;11.682;2022-12-20T08:32:10;2.13;;;1.93;;
38023;SDS011;23834;48.080;11.682;2022-12-20T08:34:36;2.60;;;2.40;;
38023;SDS011;23834;48.080;11.682;2022-12-20T08:37:02;2.97;;;2.63;;
38023;SDS011;23834;48.080;11.682;2022-12-20T08:39:27;2.20;;;2.00;;
38023;SDS011;23834;48.080;11.682;2022-12-20T08:41:52;3.77;;;2.70;;
38023;SDS011;23834;48.080;11.682;2022-12-20T08:44:17;4.13;;;2.30;;
38023;SDS011;23834;48.080;11.682;2022-12-20T08:46:42;2.60;;;2.40;;
38023;SDS011;23834;48.080;11.682;2022-12-20T08:49:08;3.00;;;2.47;;
38023;SDS011;23834;48.080;11.682;2022-12-20T08:51:33;3.17;;;2.57;;
38023;SDS011;23834;48.080;11.682;2022-12-20T08:53:58;2.53;;;2.37;;
38023;SDS011;23834;48.080;11.682;2022-12-20T08:56:23;2.80;;;2.50;;
38023;SDS011;23834;48.080;11.682;2022-12-20T08:58:48;2.70;;;2.50;;
38023;SDS011;23834;48.080;11.682;2022-12-20T09:01:15;3.63;;;2.57;;
38023;SDS011;23834;48.080;11.682;2022-12-20T09:03:40;3.07;;;2.80;;
38023;SDS011;23834;48.080;11.682;2022-12-20T09:06:10;2.93;;;2.73;;
38023;SDS011;23834;48.080;11.682;2022-12-20T09:08:36;2.30;;;2.20;;
38023;SDS011;23834;48.080;11.682;2022-12-20T09:11:03;2.53;;;2.33;;
38023;SDS011;23834;48.080;11.682;2022-12-20T09:13:28;3.27;;;2.30;;
38023;SDS011;23834;48.080;11.682;2022-12-20T09:15:54;2.97;;;2.60;;
38023;SDS011;23834;48.080;11.682;2022-12-20T09:18:19;2.27;;;2.07;;
38023;SDS011;23834;48.080;11.682;2022-12-20T09:20:44;3.60;;;2.87;;
38023;SDS011;23834;48.080;11.682;2022-12-20T09:23:09;3.90;;;2.70;;
38023;SDS011;23834;48.080;11.682;2022-12-20T09:25:35;4.83;;;2.40;;
38023;SDS011;23834;48.080;11.682;2022-12-20T09:28:01;3.27;;;2.47;;
38023;SDS011;23834;48.080;11.682;2022-12-20T09:30:27;2.20;;;2.03;;
38023;SDS011;23834;48.080;11.682;2022-12-20T09:32:52;2.97;;;2.37;;
38023;SDS011;23834;48.080;11.682;2022-12-20T09:35:17;1.97;;;1.87;;
38023;SDS011;23834;48.080;11.682;2022-12-20T09:37:42;2.53;;;2.33;;
38023;SDS011;23834;48.080;11.682;2022-12-20T09:40:13;2.60;;;2.40;;
38023;SDS011;23834;48.080;11.682;2022-12-20T09:42:40;2.50;;;2.30;;
38023;SDS011;23834;48.080;11.682;2022-12-20T09:45:06;2.83;;;2.57;;
38023;SDS011;23834;48.080;11.682;2022-12-20T09:47:32;2.40;;;2.20;;
38023;SDS011;23834;48.080;11.682;2022-12-20T09:49:58;2.40;;;2.20;;
38023;SDS011;23834;48.080;11.682;2022-12-20T09:52:27;3.77;;;2.50;;
38023;SDS011;23834;48.080;11.682;2022-12-20T09:55:00;2.70;;;2.23;;
38023;SDS011;23834;48.080;11.682;2022-12-20T09:57:41;3.13;;;2.50;;
38023;SDS011;23834;48.080;11.682;2022-12-20T10:00:16;2.23;;;2.00;;
38023;SDS011;23834;48.080;11.682;2022-12-20T10:02:42;3.07;;;2.50;;
38023;SDS011;23834;48.080;11.682;2022-12-20T10:05:19;2.63;;;2.43;;
38023;SDS011;23834;48.080;11.682;2022-12-20T10:15:47;3.00;;;2.40;;
38023;SDS011;23834;48.080;11.682;2022-12-20T10:18:17;2.63;;;2.27;;
38023;SDS011;23834;48.080;11.682;2022-12-20T10:20:56;4.00;;;2.90;;
38023;SDS011;23834;48.080;11.682;2022-12-20T10:25:51;2.95;;;2.55;;
38023;SDS011;23834;48.080;11.682;2022-12-20T10:28:17;3.70;;;2.90;;
38023;SDS011;23834;48.080;11.682;2022-12-20T10:30:44;3.23;;;2.57;;
38023;SDS011;23834;48.080;11.682;2022-12-20T10:33:13;4.33;;;2.27;;
38023;SDS011;23834;48.080;11.682;2022-12-20T10:35:40;3.00;;;2.60;;
38023;SDS011;23834;48.080;11.682;2022-12-20T10:38:06;2.97;;;2.77;;
38023;SDS011;23834;48.080;11.682;2022-12-20T10:40:36;2.77;;;2.57;;
38023;SDS011;23834;48.080;11.682;2022-12-20T10:43:03;2.67;;;2.47;;
38023;SDS011;23834;48.080;11.682;2022-12-20T10:45:35;2.73;;;2.53;;
38023;SDS011;23834;48.080;11.682;2022-12-20T10:48:02;2.60;;;2.40;;
38023;SDS011;23834;48.080;11.682;2022-12-20T10:50:28;2.80;;;2.50;;
38023;SDS011;23834;48.080;11.682;2022-12-20T10:53:15;2.63;;;2.43;;
38023;SDS011;23834;48.080;11.682;2022-12-20T10:55:42;3.60;;;2.40;;
38023;SDS011;23834;48.080;11.682;2022-12-20T11:00:38;3.57;;;2.53;;
38023;SDS011;23834;48.080;11.682;2022-12-20T11:03:09;3.23;;;2.77;;
38023;SDS011;23834;48.080;11.682;2022-12-20T11:05:35;2.83;;;2.60;;
38023;SDS011;23834;48.080;11.682;2022-12-20T11:08:14;2.40;;;2.27;;
38023;SDS011;23834;48.080;11.682;2022-12-20T11:10:40;4.83;;;2.60;;
38023;SDS011;23834;48.080;11.682;2022-12-20T11:13:05;2.50;;;2.30;;
38023;SDS011;23834;48.080;11.682;2022-12-20T11:15:31;2.50;;;2.30;;
38023;SDS011;23834;48.080;11.682;2022-12-20T11:17:58;3.40;;;2.60;;
38023;SDS011;23834;48.080;11.682;2022-12-20T11:20:28;2.57;;;2.37;;
38023;SDS011;23834;48.080;11.682;2022-12-20T11:31:19;2.60;;;2.20;;
38023;SDS011;23834;48.080;11.682;2022-12-20T11:41:54;2.73;;;2.47;;
38023;SDS011;23834;48.080;11.682;2022-12-20T11:52:09;2.50;;;2.30;;
38023;SDS011;23834;48.080;11.682;2022-12-20T11:54:42;2.50;;;2.30;;
38023;SDS011;23834;48.080;11.682;2022-12-20T11:57:12;2.40;;;2.20;;
38023;SDS011;23834;48.080;11.682;2022-12-20T11:59:40;3.13;;;2.63;;
38023;SDS011;23834;48.080;11.682;2022-12-20T12:02:09;2.67;;;2.47;;
38023;SDS011;23834;48.080;11.682;2022-12-20T12:04:37;2.27;;;2.10;;
38023;SDS011;23834;48.080;11.682;2022-12-20T12:07:18;2.33;;;2.03;;
38023;SDS011;23834;48.080;11.682;2022-12-20T12:12:21;3.90;;;2.30;;
38023;SDS011;23834;48.080;11.682;2022-12-20T12:17:30;2.80;;;2.47;;
38023;SDS011;23834;48.080;11.682;2022-12-20T12:20:00;3.20;;;2.80;;
38023;SDS011;23834;48.080;11.682;2022-12-20T12:22:29;4.77;;;2.33;;
38023;SDS011;23834;48.080;11.682;2022-12-20T12:24:57;2.33;;;2.20;;
38023;SDS011;23834;48.080;11.682;2022-12-20T12:27:24;3.23;;;3.03;;
38023;SDS011;23834;48.080;11.682;2022-12-20T12:29:51;2.50;;;2.30;;
38023;SDS011;23834;48.080;11.682;2022-12-20T12:32:23;2.80;;;2.50;;
38023;SDS011;23834;48.080;11.682;2022-12-20T12:40:26;3.07;;;2.77;;
38023;SDS011;23834;48.080;11.682;2022-12-20T12:43:08;2.97;;;2.67;;
38023;SDS011;23834;48.080;11.682;2022-12-20T12:45:41;2.70;;;2.50;;
38023;SDS011;23834;48.080;11.682;2022-12-20T12:48:24;2.70;;;2.50;;
38023;SDS011;23834;48.080;11.682;2022-12-20T12:50:52;3.50;;;2.27;;
38023;SDS011;23834;48.080;11.682;2022-12-20T12:53:22;2.70;;;2.50;;
38023;SDS011;23834;48.080;11.682;2022-12-20T12:55:51;3.07;;;2.87;;
38023;SDS011;23834;48.080;11.682;2022-12-20T13:03:16;2.97;;;2.77;;
38023;SDS011;23834;48.080;11.682;2022-12-20T13:06:15;2.90;;;2.70;;
38023;SDS011;23834;48.080;11.682;2022-12-20T13:08:48;3.27;;;2.97;;
38023;SDS011;23834;48.080;11.682;2022-12-20T13:11:14;2.80;;;2.60;;
38023;SDS011;23834;48.080;11.682;2022-12-20T13:14:09;2.60;;;2.40;;
38023;SDS011;23834;48.080;11.682;2022-12-20T13:16:36;3.47;;;2.80;;
38023;SDS011;23834;48.080;11.682;2022-12-20T13:19:09;2.73;;;2.53;;
38023;SDS011;23834;48.080;11.682;2022-12-20T13:21:35;2.37;;;2.17;;
38023;SDS011;23834;48.080;11.682;2022-12-20T13:26:51;2.90;;;2.70;;
38023;SDS011;23834;48.080;11.682;2022-12-20T13:29:21;3.17;;;2.93;;
38023;SDS011;23834;48.080;11.682;2022-12-20T13:31:47;3.27;;;2.97;;
38023;SDS011;23834;48.080;11.682;2022-12-20T13:34:34;2.83;;;2.60;;
38023;SDS011;23834;48.080;11.682;2022-12-20T13:36:57;3.30;;;2.57;;
38023;SDS011;23834;48.080;11.682;2022-12-20T13:41:53;3.03;;;2.83;;
38023;SDS011;23834;48.080;11.682;2022-12-20T13:44:35;2.90;;;2.70;;
38023;SDS011;23834;48.080;11.682;2022-12-20T13:47:02;2.50;;;2.30;;
38023;SDS011;23834;48.080;11.682;2022-12-20T13:49:42;3.07;;;2.77;;
38023;SDS011;23834;48.080;11.682;2022-12-20T13:54:33;3.15;;;2.85;;
38023;SDS011;23834;48.080;11.682;2022-12-20T13:57:00;2.83;;;2.60;;
38023;SDS011;23834;48.080;11.682;2022-12-20T13:59:30;3.33;;;3.03;;
38023;SDS011;23834;48.080;11.682;2022-12-20T14:01:56;3.00;;;2.40;;
38023;SDS011;23834;48.080;11.682;2022-12-20T14:04:23;2.83;;;2.63;;
38023;SDS011;23834;48.080;11.682;2022-12-20T14:06:53;2.87;;;2.70;;
38023;SDS011;23834;48.080;11.682;2022-12-20T14:09:34;3.77;;;3.00;;
38023;SDS011;23834;48.080;11.682;2022-12-20T14:12:04;2.70;;;2.50;;
38023;SDS011;23834;48.080;11.682;2022-12-20T14:14:29;3.57;;;2.90;;
38023;SDS011;23834;48.080;11.682;2022-12-20T14:16:54;2.93;;;2.63;;
38023;SDS011;23834;48.080;11.682;2022-12-20T14:19:21;3.90;;;3.20;;
38023;SDS011;23834;48.080;11.682;2022-12-20T14:21:46;3.20;;;2.90;;
38023;SDS011;23834;48.080;11.682;2022-12-20T14:24:13;3.50;;;3.20;;
38023;SDS011;23834;48.080;11.682;2022-12-20T14:26:41;2.87;;;2.67;;
38023;SDS011;23834;48.080;11.682;2022-12-20T14:29:11;3.43;;;3.13;;
38023;SDS011;23834;48.080;11.682;2022-12-20T14:31:40;3.23;;;2.93;;
38023;SDS011;23834;48.080;11.682;2022-12-20T14:36:35;3.93;;;3.63;;
38023;SDS011;23834;48.080;11.682;2022-12-20T14:39:00;3.17;;;2.97;;
38023;SDS011;23834;48.080;11.682;2022-12-20T14:41:29;3.40;;;3.10;;
38023;SDS011;23834;48.080;11.682;2022-12-20T14:43:56;3.13;;;2.90;;
38023;SDS011;23834;48.080;11.682;2022-12-20T14:46:22;3.80;;;3.00;;
38023;SDS011;23834;48.080;11.682;2022-12-20T14:48:47;3.23;;;2.83;;
38023;SDS011;23834;48.080;11.682;2022-12-20T14:51:18;3.67;;;3.03;;
38023;SDS011;23834;48.080;11.682;2022-12-20T14:53:44;3.70;;;3.40;;
38023;SDS011;23834;48.080;11.682;2022-12-20T14:56:15;4.00;;;3.13;;
38023;SDS011;23834;48.080;11.682;2022-12-20T14:58:41;5.57;;;3.27;;
38023;SDS011;23834;48.080;11.682;2022-12-20T15:01:20;3.60;;;3.23;;
38023;SDS011;23834;48.080;11.682;2022-12-20T15:03:55;4.50;;;3.10;;
38023;SDS011;23834;48.080;11.682;2022-12-20T15:06:31;4.17;;;3.77;;
38023;SDS011;23834;48.080;11.682;2022-12-20T15:08:57;3.37;;;3.00;;
38023;SDS011;23834;48.080;11.682;2022-12-20T15:11:22;3.93;;;3.20;;
38023;SDS011;23834;48.080;11.682;2022-12-20T15:13:50;3.13;;;2.83;;
38023;SDS011;23834;48.080;11.682;2022-12-20T15:18:42;4.07;;;3.67;;
38023;SDS011;23834;48.080;11.682;2022-12-20T15:21:14;3.30;;;3.00;;
38023;SDS011;23834;48.080;11.682;2022-12-20T15:23:45;3.63;;;3.27;;
38023;SDS011;23834;48.080;11.682;2022-12-20T15:26:13;3.63;;;3.23;;
38023;SDS011;23834;48.080;11.682;2022-12-20T15:28:38;3.67;;;3.37;;
38023;SDS011;23834;48.080;11.682;2022-12-20T15:31:04;3.30;;;3.00;;
38023;SDS011;23834;48.080;11.682;2022-12-20T15:33:30;3.20;;;2.90;;
38023;SDS011;23834;48.080;11.682;2022-12-20T15:35:56;3.43;;;3.13;;
38023;SDS011;23834;48.080;11.682;2022-12-20T15:38:23;4.17;;;3.47;;
38023;SDS011;23834;48.080;11.682;2022-12-20T15:40:56;2.77;;;2.57;;
38023;SDS011;23834;48.080;11.682;2022-12-20T15:43:24;4.10;;;3.20;;
38023;SDS011;23834;48.080;11.682;2022-12-20T15:45:50;4.40;;;3.37;;
38023;SDS011;23834;48.080;11.682;2022-12-20T15:48:17;3.60;;;3.30;;
38023;SDS011;23834;48.080;11.682;2022-12-20T15:50:43;4.30;;;3.37;;
38023;SDS011;23834;48.080;11.682;2022-12-20T15:53:13;4.00;;;3.70;;
38023;SDS011;23834;48.080;11.682;2022-12-20T15:55:39;3.67;;;3.37;;
38023;SDS011;23834;48.080;11.682;2022-12-20T15:58:04;4.03;;;3.70;;
38023;SDS011;23834;48.080;11.682;2022-12-20T16:00:29;5.00;;;3.77;;
38023;SDS011;23834;48.080;11.682;2022-12-20T16:02:54;4.63;;;3.60;;